Time;durP1;ratioP1;P1;durP2;ratioP2;P2;SDS_P1;SDS_P2;PMS_P1;PMS_P2;Temp;Humidity;BMP_temperature;BMP_pressure;BME280_temperature;BME280_humidity;BME280_pressure;Samples;Min_cycle;Max_cycle;Signal;HPM_P1;HPM_P2
2021/12/24 00:00:18;;;;;;;1.20;0.35;;;8.20;99.90;;;;;;4975056;28;20057;-77
2021/12/24 00:02:43;;;;;;;0.20;0.20;;;8.20;99.90;;;;;;4991396;28;20062;-77
2021/12/24 00:05:09;;;;;;;0.40;0.40;;;8.20;99.90;;;;;;4992554;28;20057;-77
2021/12/24 00:07:35;;;;;;;0.40;0.40;;;8.20;99.90;;;;;;4991088;28;20036;-78
2021/12/24 00:10:01;;;;;;;1.77;1.27;;;8.20;99.90;;;;;;4991310;28;20035;-77
2021/12/24 00:12:31;;;;;;;0.35;0.35;;;8.20;99.90;;;;;;4991448;28;20501;-78
2021/12/24 00:15:02;;;;;;;0.20;0.20;;;8.20;99.90;;;;;;4992471;28;20033;-76
2021/12/24 00:17:31;;;;;;;0.15;0.15;;;8.20;99.90;;;;;;4992465;28;20029;-77
2021/12/24 00:20:13;;;;;;;0.20;0.20;;;8.20;99.90;;;;;;4992351;28;20033;-76
2021/12/24 00:35:07;;;;;;;0.13;0.13;;;8.30;99.90;;;;;;4992504;28;20030;-76
2021/12/24 00:36:18;;;;;;;0.20;0.20;;;8.30;99.90;;;;;;4991993;28;20022;-77
2021/12/24 00:38:44;;;;;;;0.55;0.55;;;8.20;99.90;;;;;;4992291;28;20042;-77
2021/12/24 00:41:10;;;;;;;4.18;0.82;;;8.20;99.90;;;;;;4992305;28;20065;-78
2021/12/24 00:43:36;;;;;;;0.20;0.20;;;8.30;99.90;;;;;;4991078;28;20026;-77
2021/12/24 00:46:01;;;;;;;0.15;0.15;;;8.30;99.90;;;;;;4992191;28;20022;-76
2021/12/24 00:48:27;;;;;;;0.20;0.20;;;8.30;99.90;;;;;;4990937;28;20470;-77
2021/12/24 00:56:15;;;;;;;0.20;0.20;;;8.40;99.90;;;;;;4995741;28;20021;-77
2021/12/24 00:58:43;;;;;;;1.00;0.82;;;8.40;99.90;;;;;;4996007;28;20023;-77
2021/12/24 01:01:11;;;;;;;2.17;0.70;;;8.40;99.90;;;;;;4978191;28;20034;-76
2021/12/24 01:03:38;;;;;;;0.30;0.30;;;8.40;99.90;;;;;;4994537;28;20034;-77
2021/12/24 01:06:04;;;;;;;0.20;0.20;;;8.40;99.90;;;;;;4995530;28;20022;-76
2021/12/24 01:08:30;;;;;;;1.88;1.75;;;8.40;99.90;;;;;;4994339;28;20695;-76
2021/12/24 01:11:00;;;;;;;0.57;0.57;;;8.40;99.90;;;;;;4995675;28;20054;-77
2021/12/24 01:13:27;;;;;;;0.70;0.43;;;8.40;99.90;;;;;;4994350;28;20552;-77
2021/12/24 01:16:04;;;;;;;0.28;0.28;;;8.40;99.90;;;;;;4993925;28;20029;-76
2021/12/24 01:21:18;;;;;;;0.20;0.20;;;8.40;99.90;;;;;;4995486;28;20433;-76
2021/12/24 01:23:50;;;;;;;0.20;0.20;;;8.40;99.90;;;;;;4994285;28;20033;-77
2021/12/24 01:26:32;;;;;;;0.20;0.20;;;8.40;99.90;;;;;;5010274;28;20037;-77
2021/12/24 01:44:52;;;;;;;0.55;0.45;;;8.40;99.90;;;;;;4993829;28;20038;-77
2021/12/24 01:47:18;;;;;;;0.45;0.30;;;8.40;99.90;;;;;;4994776;28;20490;-77
2021/12/24 01:49:44;;;;;;;0.20;0.20;;;8.40;99.90;;;;;;4994910;28;20038;-77
2021/12/24 01:52:11;;;;;;;0.30;0.30;;;8.40;99.90;;;;;;4993562;28;20061;-77
2021/12/24 01:54:39;;;;;;;0.22;0.22;;;8.50;99.90;;;;;;4993575;28;20496;-77
2021/12/24 01:57:05;;;;;;;0.20;0.20;;;8.40;99.90;;;;;;4994651;28;20014;-77
2021/12/24 01:59:31;;;;;;;0.20;0.20;;;8.50;99.90;;;;;;4994580;28;20029;-77
2021/12/24 02:01:56;;;;;;;0.63;0.63;;;8.50;99.90;;;;;;4993357;28;20409;-77
2021/12/24 02:04:22;;;;;;;0.30;0.30;;;8.50;99.90;;;;;;4976729;28;20023;-77
2021/12/24 02:06:49;;;;;;;0.32;0.32;;;8.50;99.90;;;;;;4976905;28;20059;-78
2021/12/24 02:09:15;;;;;;;0.20;0.20;;;8.50;99.90;;;;;;4994673;28;20057;-76
2021/12/24 02:11:41;;;;;;;0.38;0.38;;;8.50;99.90;;;;;;4994585;28;20053;-76
2021/12/24 02:14:10;;;;;;;0.47;0.47;;;8.50;99.90;;;;;;4993287;28;20026;-76
2021/12/24 02:16:52;;;;;;;0.30;0.30;;;8.50;99.90;;;;;;4993154;28;20022;-76
2021/12/24 02:30:18;;;;;;;1.73;0.45;;;8.60;99.90;;;;;;4992889;28;20384;-76
2021/12/24 02:32:44;;;;;;;0.70;0.40;;;8.60;99.90;;;;;;4992940;28;20114;-76
2021/12/24 02:35:10;;;;;;;1.23;0.45;;;8.60;99.90;;;;;;4993994;28;20450;-77
2021/12/24 02:37:36;;;;;;;0.43;0.43;;;8.70;99.90;;;;;;4993937;28;20046;-76
2021/12/24 02:40:06;;;;;;;0.28;0.28;;;8.70;99.90;;;;;;4992787;28;20489;-76
2021/12/24 02:42:34;;;;;;;0.43;0.43;;;8.80;99.90;;;;;;4993058;28;20026;-77
2021/12/24 02:45:00;;;;;;;1.13;0.70;;;8.70;99.90;;;;;;4992924;28;20061;-76
2021/12/24 02:47:41;;;;;;;1.25;0.70;;;8.80;99.90;;;;;;4992506;28;20031;-77
2021/12/24 02:55:17;;;;;;;0.30;0.30;;;8.70;99.90;;;;;;4992427;28;20030;-77
2021/12/24 02:57:44;;;;;;;0.57;0.57;;;8.70;99.90;;;;;;4976159;28;20508;-76
2021/12/24 03:00:20;;;;;;;0.25;0.25;;;8.80;99.90;;;;;;4993478;28;20022;-77
2021/12/24 03:02:47;;;;;;;0.43;0.40;;;8.80;99.90;;;;;;4976032;28;20081;-78
2021/12/24 03:05:18;;;;;;;1.55;0.40;;;8.80;99.90;;;;;;4993469;28;20034;-76
2021/12/24 03:07:45;;;;;;;0.28;0.28;;;8.70;99.90;;;;;;4992317;28;20408;-77
2021/12/24 03:10:15;;;;;;;1.15;1.05;;;8.70;99.90;;;;;;4992043;28;20065;-76
2021/12/24 03:12:43;;;;;;;2.28;0.50;;;8.70;99.90;;;;;;5008565;28;20474;-77
2021/12/24 03:15:11;;;;;;;0.20;0.20;;;8.70;99.90;;;;;;4992449;28;20494;-76
2021/12/24 03:17:37;;;;;;;0.25;0.25;;;8.70;99.90;;;;;;4991881;28;20062;-76
2021/12/24 03:20:09;;;;;;;0.85;0.85;;;8.60;99.90;;;;;;4993345;28;20053;-76
2021/12/24 03:25:37;;;;;;;;;;;8.60;99.90;;;;;;4990867;28;20430;-76
2021/12/24 03:28:03;;;;;;;0.20;0.20;;;8.60;99.90;;;;;;4971618;28;19915;-77
2021/12/24 03:30:29;;;;;;;0.20;0.20;;;8.60;99.90;;;;;;4991792;28;20034;-77
2021/12/24 03:32:55;;;;;;;0.20;0.20;;;8.50;99.90;;;;;;4993126;28;20022;-77
2021/12/24 03:35:21;;;;;;;0.20;0.20;;;8.50;99.90;;;;;;4992910;28;20406;-76
2021/12/24 03:37:47;;;;;;;0.35;0.35;;;8.30;99.90;;;;;;4991737;28;20026;-77
2021/12/24 03:40:13;;;;;;;0.20;0.20;;;8.10;99.90;;;;;;4991704;28;20074;-77
2021/12/24 03:42:41;;;;;;;0.40;0.40;;;8.00;99.90;;;;;;4991806;28;20026;-76
2021/12/24 03:47:56;;;;;;;1.13;0.82;;;7.90;99.90;;;;;;4991758;28;20030;-78
2021/12/24 03:50:25;;;;;;;0.30;0.30;;;7.90;99.90;;;;;;4992888;28;20030;-76
2021/12/24 03:53:04;;;;;;;0.43;0.43;;;8.10;99.90;;;;;;4991601;28;20034;-77
2021/12/24 03:55:30;;;;;;;0.25;0.25;;;8.10;99.90;;;;;;4992695;28;20109;-77
2021/12/24 03:57:55;;;;;;;0.20;0.20;;;8.20;99.90;;;;;;5008141;28;20150;-76
2021/12/24 04:00:28;;;;;;;0.20;0.20;;;8.30;99.90;;;;;;4991254;28;20494;-78
2021/12/24 04:02:54;;;;;;;0.40;0.40;;;8.30;99.90;;;;;;4992838;28;20022;-76
2021/12/24 04:05:20;;;;;;;0.20;0.20;;;8.20;99.90;;;;;;4992763;28;20034;-76
2021/12/24 04:07:46;;;;;;;0.20;0.20;;;8.10;99.90;;;;;;4992656;28;20038;-77
2021/12/24 04:12:38;;;;;;;0.20;0.20;;;7.90;99.90;;;;;;4991431;28;20037;-77
2021/12/24 04:15:05;;;;;;;0.20;0.20;;;7.90;99.90;;;;;;4992460;28;20031;-78
2021/12/24 04:17:32;;;;;;;0.22;0.22;;;7.80;99.90;;;;;;4991269;28;20169;-76
2021/12/24 04:25:29;;;;;;;0.40;0.40;;;7.70;99.90;;;;;;4991062;28;20041;-76
2021/12/24 04:28:00;;;;;;;0.38;0.25;;;7.80;99.90;;;;;;4994768;28;20073;-76
2021/12/24 04:30:33;;;;;;;0.20;0.20;;;7.90;99.90;;;;;;4995195;28;20544;-77
2021/12/24 04:33:05;;;;;;;0.22;0.22;;;8.00;99.90;;;;;;4996582;28;20550;-76
2021/12/24 04:35:39;;;;;;;0.30;0.30;;;8.10;99.90;;;;;;4995199;28;20027;-77
2021/12/24 04:51:42;;;;;;;0.50;0.50;;;8.20;99.90;;;;;;4996257;28;20026;-77
2021/12/24 05:04:33;;;;;;;0.30;0.30;;;8.10;99.90;;;;;;4994721;28;20022;-76
2021/12/24 05:07:09;;;;;;;0.20;0.20;;;8.00;99.90;;;;;;4994573;28;20046;-77
2021/12/24 05:09:39;;;;;;;1.33;0.88;;;8.10;99.90;;;;;;4994586;28;20510;-77
2021/12/24 05:12:05;;;;;;;0.45;0.38;;;8.10;99.90;;;;;;4994699;28;20594;-76
2021/12/24 05:14:31;;;;;;;0.80;0.20;;;8.10;99.90;;;;;;4995543;28;20034;-77
2021/12/24 05:17:18;;;;;;;3.10;0.75;;;8.10;99.90;;;;;;5010691;28;20038;-77
2021/12/24 05:22:32;;;;;;;5.05;0.70;;;8.10;99.90;;;;;;4995574;28;20566;-77
2021/12/24 05:25:00;;;;;;;0.25;0.25;;;8.10;99.90;;;;;;4994239;28;20478;-77
2021/12/24 05:27:26;;;;;;;0.20;0.20;;;8.10;99.90;;;;;;4994043;28;20508;-77
2021/12/24 05:29:54;;;;;;;0.73;0.73;;;8.10;99.90;;;;;;4994056;28;20034;-77
2021/12/24 05:32:20;;;;;;;0.35;0.35;;;8.00;99.90;;;;;;4995459;28;20100;-77
2021/12/24 05:34:46;;;;;;;0.10;0.10;;;8.00;99.90;;;;;;4994086;28;20073;-78
2021/12/24 05:37:12;;;;;;;0.20;0.20;;;7.90;99.90;;;;;;4993939;28;20031;-77
2021/12/24 05:39:38;;;;;;;0.15;0.15;;;7.80;99.90;;;;;;4993018;28;20025;-77
2021/12/24 05:42:05;;;;;;;0.20;0.20;;;7.70;99.90;;;;;;4995138;28;20022;-76
2021/12/24 05:44:32;;;;;;;0.40;0.40;;;7.60;99.90;;;;;;4993937;28;20033;-77
2021/12/24 05:46:59;;;;;;;0.40;0.40;;;7.50;99.90;;;;;;4995005;28;20026;-75
2021/12/24 05:49:25;;;;;;;0.20;0.20;;;7.40;99.90;;;;;;4995029;28;20026;-77
2021/12/24 05:51:51;;;;;;;0.20;0.20;;;7.30;99.90;;;;;;4994948;28;20030;-77
2021/12/24 05:54:17;;;;;;;0.20;0.20;;;7.20;99.90;;;;;;4994876;28;20442;-76
2021/12/24 05:56:44;;;;;;;0.20;0.20;;;7.20;99.90;;;;;;4993499;28;20113;-77
2021/12/24 05:59:10;;;;;;;0.20;0.20;;;7.20;99.90;;;;;;4993646;28;20463;-76
2021/12/24 06:01:36;;;;;;;0.20;0.20;;;7.20;99.90;;;;;;4994691;28;20482;-77
2021/12/24 06:04:02;;;;;;;0.20;0.20;;;7.20;99.90;;;;;;5009884;28;20027;-76
2021/12/24 06:06:28;;;;;;;0.20;0.20;;;7.20;99.90;;;;;;4994465;28;20057;-78
2021/12/24 06:08:54;;;;;;;0.25;0.25;;;7.20;99.90;;;;;;4993523;28;20065;-76
2021/12/24 06:11:20;;;;;;;0.32;0.32;;;7.30;99.90;;;;;;4998272;28;20018;-76
2021/12/24 06:13:48;;;;;;;0.20;0.20;;;7.30;99.90;;;;;;5005289;28;20414;-76
2021/12/24 06:16:14;;;;;;;0.20;0.20;;;7.30;99.90;;;;;;4997048;28;20022;-76
2021/12/24 06:18:41;;;;;;;0.20;0.20;;;7.30;99.90;;;;;;4999448;28;20531;-76
2021/12/24 06:21:07;;;;;;;0.20;0.20;;;7.30;99.90;;;;;;5004055;28;20018;-77
2021/12/24 06:23:34;;;;;;;0.20;0.20;;;7.30;99.90;;;;;;4990654;28;20022;-76
2021/12/24 06:26:00;;;;;;;0.20;0.20;;;7.30;99.90;;;;;;4984007;28;20030;-76
2021/12/24 06:28:28;;;;;;;0.20;0.20;;;7.40;99.90;;;;;;5029050;28;20022;-76
2021/12/24 06:30:55;;;;;;;0.20;0.20;;;7.40;99.90;;;;;;5001148;28;20065;-76
2021/12/24 06:33:20;;;;;;;0.30;0.30;;;7.40;99.90;;;;;;4993062;28;20033;-76
2021/12/24 06:35:46;;;;;;;0.20;0.20;;;7.30;99.90;;;;;;4992839;28;20429;-76
2021/12/24 06:38:13;;;;;;;0.20;0.20;;;7.30;99.90;;;;;;4994149;28;20046;-76
2021/12/24 06:40:39;;;;;;;1.10;0.95;;;7.30;99.90;;;;;;5009373;28;20030;-76
2021/12/24 06:43:05;;;;;;;0.20;0.20;;;7.30;99.90;;;;;;5012203;28;20120;-76
2021/12/24 06:45:32;;;;;;;0.20;0.20;;;7.20;99.90;;;;;;5028832;28;20503;-77
2021/12/24 06:48:00;;;;;;;0.20;0.20;;;7.20;99.90;;;;;;5008879;28;20030;-76
2021/12/24 06:50:26;;;;;;;0.20;0.20;;;7.10;99.90;;;;;;5013442;28;20496;-76
2021/12/24 06:52:53;;;;;;;0.20;0.20;;;7.00;99.90;;;;;;5013518;28;20037;-77
2021/12/24 06:55:19;;;;;;;0.20;0.20;;;7.00;99.90;;;;;;5013360;28;20077;-77
2021/12/24 06:57:45;;;;;;;0.20;0.20;;;6.90;99.90;;;;;;5013165;28;20018;-77
2021/12/24 07:00:16;;;;;;;0.20;0.20;;;6.90;99.90;;;;;;5013038;28;20030;-77
2021/12/24 07:02:42;;;;;;;0.28;0.28;;;7.00;99.90;;;;;;4995836;28;20080;-78
2021/12/24 07:05:08;;;;;;;0.95;0.60;;;7.00;99.90;;;;;;5012229;28;20159;-75
2021/12/24 07:07:34;;;;;;;0.20;0.20;;;7.00;99.90;;;;;;5011920;28;20033;-78
2021/12/24 07:10:00;;;;;;;0.20;0.20;;;6.90;99.90;;;;;;5012882;28;20022;-78
2021/12/24 07:12:26;;;;;;;0.20;0.20;;;6.90;99.90;;;;;;5011715;28;20022;-77
2021/12/24 07:14:51;;;;;;;0.20;0.20;;;6.90;99.90;;;;;;5011670;28;20037;-77
2021/12/24 07:17:17;;;;;;;0.20;0.20;;;6.90;99.90;;;;;;5013039;28;20033;-77
2021/12/24 07:19:43;;;;;;;0.20;0.20;;;6.90;99.90;;;;;;5028036;28;20026;-77
2021/12/24 07:22:09;;;;;;;0.20;0.20;;;6.90;99.90;;;;;;5000000;28;20041;-76
2021/12/24 07:24:36;;;;;;;0.20;0.20;;;6.90;99.90;;;;;;4992055;28;20034;-77
2021/12/24 07:27:03;;;;;;;0.20;0.20;;;7.00;99.90;;;;;;4991646;28;20026;-76
2021/12/24 07:29:30;;;;;;;0.30;0.30;;;6.90;99.90;;;;;;4993190;28;20060;-76
2021/12/24 07:31:56;;;;;;;0.20;0.20;;;6.90;99.90;;;;;;5004191;28;20037;-76
2021/12/24 07:34:22;;;;;;;0.20;0.20;;;6.80;99.90;;;;;;4994882;28;20521;-76
2021/12/24 07:36:48;;;;;;;0.22;0.22;;;6.80;99.90;;;;;;4975268;28;20031;-75
2021/12/24 07:39:14;;;;;;;0.20;0.20;;;6.80;99.90;;;;;;4998294;28;20025;-77
2021/12/24 07:41:40;;;;;;;0.10;0.10;;;6.80;99.90;;;;;;5012636;28;20033;-77
2021/12/24 07:44:06;;;;;;;0.20;0.20;;;6.80;99.90;;;;;;5011492;28;20037;-76
2021/12/24 07:46:39;;;;;;;0.25;0.25;;;6.80;99.90;;;;;;5011139;28;20398;-77
2021/12/24 07:49:18;;;;;;;13.90;12.45;;;6.80;99.90;;;;;;5009268;28;20029;-77
2021/12/24 07:54:31;;;;;;;0.20;0.20;;;6.60;99.90;;;;;;5010492;28;20025;-79
2021/12/24 07:56:58;;;;;;;0.30;0.30;;;6.60;99.90;;;;;;5008984;28;20524;-78
2021/12/24 07:59:26;;;;;;;0.20;0.20;;;6.80;99.90;;;;;;5008962;28;20249;-77
2021/12/24 08:01:56;;;;;;;0.20;0.20;;;6.90;99.90;;;;;;5008454;28;20033;-77
2021/12/24 08:04:23;;;;;;;0.30;0.30;;;7.00;99.90;;;;;;5010909;28;20378;-77
2021/12/24 08:06:49;;;;;;;0.30;0.30;;;7.20;99.90;;;;;;5010314;28;20121;-76
2021/12/24 08:09:15;;;;;;;0.20;0.20;;;7.30;99.90;;;;;;5010550;28;20508;-77
2021/12/24 08:11:41;;;;;;;0.93;0.57;;;7.30;99.90;;;;;;5012138;28;20022;-77
2021/12/24 08:14:07;;;;;;;0.20;0.20;;;7.40;99.90;;;;;;5010793;28;20535;-76
2021/12/24 08:16:35;;;;;;;0.20;0.20;;;7.40;99.90;;;;;;5011929;28;20018;-77
2021/12/24 08:19:02;;;;;;;0.20;0.20;;;7.50;99.90;;;;;;4994620;28;20026;-77
2021/12/24 08:21:28;;;;;;;0.20;0.20;;;7.50;99.90;;;;;;5012132;28;20029;-78
2021/12/24 08:23:54;;;;;;;0.20;0.20;;;7.50;99.90;;;;;;5011927;28;20029;-78
2021/12/24 08:26:21;;;;;;;0.30;0.30;;;7.60;99.90;;;;;;5010827;28;20474;-78
2021/12/24 08:28:48;;;;;;;0.22;0.22;;;7.60;99.90;;;;;;5011834;28;20030;-78
2021/12/24 08:31:15;;;;;;;0.20;0.20;;;7.60;99.90;;;;;;5013034;28;20057;-76
2021/12/24 08:33:41;;;;;;;0.63;0.63;;;7.60;99.90;;;;;;5011979;28;20022;-78
2021/12/24 08:36:08;;;;;;;0.20;0.20;;;7.50;99.90;;;;;;5010763;28;20033;-77
2021/12/24 08:38:34;;;;;;;0.40;0.40;;;7.50;99.90;;;;;;4995569;28;20022;-77
2021/12/24 08:41:00;;;;;;;0.28;0.28;;;7.50;99.90;;;;;;5013854;28;20591;-76
2021/12/24 08:43:26;;;;;;;2.38;0.82;;;7.60;99.90;;;;;;5011609;28;20030;-76
2021/12/24 08:45:53;;;;;;;0.20;0.20;;;7.60;99.90;;;;;;5012164;28;20022;-78
2021/12/24 08:48:20;;;;;;;0.20;0.20;;;7.70;99.90;;;;;;5012329;28;20620;-77
2021/12/24 08:50:46;;;;;;;0.20;0.20;;;7.70;99.90;;;;;;4995978;28;20056;-76
2021/12/24 08:53:12;;;;;;;1.00;0.68;;;7.70;99.90;;;;;;5012704;28;20113;-77
2021/12/24 08:55:39;;;;;;;0.63;0.63;;;7.70;99.90;;;;;;5012246;28;20168;-77
2021/12/24 08:58:05;;;;;;;0.30;0.30;;;7.70;99.90;;;;;;5012053;28;20026;-77
2021/12/24 09:00:33;;;;;;;0.20;0.20;;;7.70;99.90;;;;;;4998442;28;20092;-76
2021/12/24 09:03:01;;;;;;;0.20;0.20;;;7.70;99.90;;;;;;5008310;28;20037;-76
2021/12/24 09:05:28;;;;;;;0.20;0.20;;;7.70;99.90;;;;;;5001641;28;20044;-78
2021/12/24 09:07:54;;;;;;;0.95;0.95;;;7.80;99.90;;;;;;4998798;28;20080;-77
2021/12/24 09:10:20;;;;;;;0.10;0.10;;;7.70;99.90;;;;;;5009365;28;20108;-74
2021/12/24 09:12:47;;;;;;;0.73;0.57;;;7.70;99.90;;;;;;5001978;28;20489;-74
2021/12/24 09:15:17;;;;;;;0.20;0.20;;;7.80;99.90;;;;;;4995528;28;20022;-73
2021/12/24 09:17:46;;;;;;;0.25;0.25;;;7.80;99.90;;;;;;4996642;28;20030;-76
2021/12/24 09:20:24;;;;;;;0.40;0.40;;;7.80;99.90;;;;;;5029074;23;20081;-93
2021/12/24 09:22:55;;;;;;;0.85;0.65;;;7.90;99.90;;;;;;5023937;28;20057;-93
2021/12/24 09:25:25;;;;;;;1.20;1.20;;;7.90;99.90;;;;;;5022165;28;20430;-93
2021/12/24 09:28:04;;;;;;;0.30;0.30;;;7.90;99.90;;;;;;5023352;28;20033;-93
2021/12/24 09:30:45;;;;;;;0.20;0.20;;;7.90;99.90;;;;;;5024348;28;20392;-94
2021/12/24 09:33:14;;;;;;;0.40;0.40;;;7.90;99.90;;;;;;5023619;28;20029;-92
2021/12/24 09:35:39;;;;;;;0.20;0.20;;;8.00;99.90;;;;;;5018338;28;20502;-87
2021/12/24 09:38:05;;;;;;;0.20;0.20;;;8.00;99.90;;;;;;5017688;28;20033;-87
2021/12/24 09:40:35;;;;;;;0.20;0.20;;;8.00;99.90;;;;;;5017386;28;20032;-87
2021/12/24 09:43:01;;;;;;;0.30;0.30;;;8.10;99.90;;;;;;5017907;28;20514;-87
2021/12/24 09:45:27;;;;;;;0.20;0.20;;;8.10;99.90;;;;;;5017917;28;20033;-87
2021/12/24 09:47:53;;;;;;;0.20;0.20;;;8.10;99.90;;;;;;5018247;28;20480;-87
2021/12/24 09:50:23;;;;;;;0.20;0.20;;;8.20;99.90;;;;;;5018441;28;20100;-91
2021/12/24 09:52:49;;;;;;;0.45;0.45;;;8.20;99.90;;;;;;5026012;28;20014;-89
2021/12/24 09:55:22;;;;;;;0.20;0.20;;;8.20;99.90;;;;;;5041457;28;20025;-90
2021/12/24 09:57:56;;;;;;;0.47;0.38;;;8.30;99.90;;;;;;5040041;28;20068;-90
2021/12/24 10:00:26;;;;;;;0.30;0.30;;;8.40;99.90;;;;;;5019364;28;20540;-90
2021/12/24 10:03:05;;;;;;;0.50;0.50;;;8.40;99.90;;;;;;5019355;28;20022;-91
2021/12/24 10:05:38;;;;;;;0.30;0.30;;;8.40;99.90;;;;;;5018381;28;20534;-90
2021/12/24 10:08:35;;;;;;;0.20;0.20;;;8.40;99.90;;;;;;5019798;28;20029;-92
2021/12/24 10:11:10;;;;;;;0.20;0.20;;;8.50;99.90;;;;;;5019308;28;20120;-91
2021/12/24 10:13:43;;;;;;;0.25;0.25;;;8.50;99.90;;;;;;5035276;28;20032;-91
2021/12/24 10:16:17;;;;;;;0.20;0.20;;;8.50;99.90;;;;;;5019032;28;20037;-92
2021/12/24 10:18:51;;;;;;;0.20;0.20;;;8.40;99.90;;;;;;5018281;28;20033;-91
2021/12/24 10:21:23;;;;;;;0.98;0.95;;;8.50;99.90;;;;;;5018446;28;20036;-91
2021/12/24 10:23:57;;;;;;;0.20;0.20;;;8.50;99.90;;;;;;5016364;28;20021;-89
2021/12/24 10:26:45;;;;;;;0.50;0.50;;;8.50;99.90;;;;;;5017104;28;20025;-88
2021/12/24 10:29:20;;;;;;;0.20;0.20;;;8.50;99.90;;;;;;5017198;28;20147;-90
2021/12/24 10:32:08;;;;;;;0.20;0.20;;;8.50;99.90;;;;;;5022598;28;20044;-91
2021/12/24 10:34:35;;;;;;;0.20;0.20;;;8.60;99.90;;;;;;5016234;28;20052;-90
2021/12/24 10:37:04;;;;;;;0.20;0.20;;;8.60;99.90;;;;;;5034230;28;20107;-91
2021/12/24 10:39:44;;;;;;;0.30;0.30;;;8.60;99.90;;;;;;5034110;28;20398;-91
2021/12/24 10:42:12;;;;;;;1.10;0.82;;;8.60;99.90;;;;;;5037883;28;20023;-90
2021/12/24 10:44:40;;;;;;;0.20;0.20;;;8.60;99.90;;;;;;5034007;28;20033;-90
2021/12/24 10:47:12;;;;;;;0.70;0.57;;;8.50;99.90;;;;;;5035274;28;20022;-91
2021/12/24 10:49:57;;;;;;;0.60;0.60;;;8.50;99.90;;;;;;5036004;28;20026;-91
2021/12/24 10:55:15;;;;;;;0.20;0.20;;;8.40;99.90;;;;;;5037705;28;20030;-90
2021/12/24 10:57:46;;;;;;;2.25;0.40;;;8.40;99.90;;;;;;5038359;28;20018;-90
2021/12/24 11:00:28;;;;;;;0.20;0.20;;;8.40;99.90;;;;;;5036257;28;20521;-89
2021/12/24 11:02:57;;;;;;;0.10;0.10;;;8.50;99.90;;;;;;5033294;28;20022;-89
2021/12/24 11:05:28;;;;;;;0.30;0.30;;;8.50;99.90;;;;;;5032340;28;20103;-89
2021/12/24 11:07:57;;;;;;;1.30;1.27;;;8.50;99.90;;;;;;5041211;28;20025;-88
2021/12/24 11:10:26;;;;;;;0.40;0.40;;;8.50;99.90;;;;;;5026660;28;20026;-89
2021/12/24 11:12:59;;;;;;;0.20;0.20;;;8.60;99.90;;;;;;5030270;28;20021;-89
2021/12/24 11:15:33;;;;;;;0.20;0.20;;;8.60;99.90;;;;;;5020126;28;20025;-89
2021/12/24 11:18:02;;;;;;;0.20;0.20;;;8.60;99.90;;;;;;5018775;28;20022;-89
2021/12/24 11:20:30;;;;;;;0.32;0.32;;;8.60;99.90;;;;;;5016311;28;20039;-89
2021/12/24 11:23:01;;;;;;;0.98;0.98;;;8.70;99.90;;;;;;5016395;28;20486;-89
2021/12/24 11:25:30;;;;;;;0.20;0.20;;;8.70;99.90;;;;;;5018115;28;20025;-89
2021/12/24 11:27:56;;;;;;;0.20;0.20;;;8.70;99.90;;;;;;5018319;28;20022;-90
2021/12/24 11:30:24;;;;;;;0.75;0.70;;;8.70;99.90;;;;;;5018130;28;20079;-90
2021/12/24 11:32:50;;;;;;;0.32;0.32;;;8.70;99.90;;;;;;5018693;28;20028;-91
2021/12/24 11:35:17;;;;;;;0.20;0.20;;;8.70;99.90;;;;;;5017669;28;20041;-90
2021/12/24 11:37:45;;;;;;;0.57;0.57;;;8.70;99.90;;;;;;5016537;28;20427;-90
2021/12/24 11:40:14;;;;;;;0.20;0.20;;;8.60;99.90;;;;;;5017076;28;20119;-90
2021/12/24 11:42:43;;;;;;;0.60;0.60;;;8.70;99.90;;;;;;5025820;28;20071;-90
2021/12/24 11:45:09;;;;;;;0.20;0.20;;;8.70;99.90;;;;;;5039558;28;20037;-89
2021/12/24 11:47:36;;;;;;;0.60;0.60;;;8.70;99.90;;;;;;5038180;28;20430;-89
2021/12/24 11:50:13;;;;;;;0.43;0.43;;;8.60;99.90;;;;;;5034826;28;20029;-91
2021/12/24 11:53:06;;;;;;;0.20;0.20;;;8.60;99.90;;;;;;5018579;28;20029;-91
2021/12/24 11:55:52;;;;;;;0.40;0.40;;;8.70;99.90;;;;;;5018074;28;20573;-90
2021/12/24 11:58:27;;;;;;;0.20;0.20;;;8.60;99.90;;;;;;5017440;28;20025;-90
2021/12/24 12:00:55;;;;;;;0.10;0.10;;;8.60;99.90;;;;;;5017562;28;20026;-90
2021/12/24 12:03:36;;;;;;;0.20;0.20;;;8.50;99.90;;;;;;5017454;28;20022;-90
2021/12/24 12:06:10;;;;;;;0.30;0.30;;;8.60;99.90;;;;;;5016821;28;20027;-90
2021/12/24 12:08:39;;;;;;;0.20;0.20;;;8.50;99.90;;;;;;5017313;28;20026;-90
2021/12/24 12:11:16;;;;;;;0.20;0.20;;;8.50;99.90;;;;;;5017443;28;20513;-91
2021/12/24 12:13:54;;;;;;;0.30;0.30;;;8.50;99.90;;;;;;5017380;28;20128;-90
2021/12/24 12:16:28;;;;;;;0.45;0.30;;;8.60;99.90;;;;;;5017297;28;20487;-89
2021/12/24 12:19:37;;;;;;;0.82;0.50;;;8.60;99.90;;;;;;5016933;28;20025;-89
2021/12/24 12:24:58;;;;;;;0.85;0.85;;;8.50;99.90;;;;;;5033885;28;20514;-90
2021/12/24 12:27:35;;;;;;;0.20;0.20;;;8.50;99.90;;;;;;5039844;28;20029;-90
2021/12/24 12:30:20;;;;;;;0.88;0.35;;;8.50;99.90;;;;;;5039715;28;20023;-89
2021/12/24 12:32:46;;;;;;;0.28;0.28;;;8.50;99.90;;;;;;5040135;28;20101;-89
2021/12/24 12:35:13;;;;;;;1.30;0.40;;;8.50;99.90;;;;;;5039734;28;20048;-88
2021/12/24 12:37:53;;;;;;;1.08;0.95;;;8.50;99.90;;;;;;5039617;28;20013;-89
2021/12/24 12:40:19;;;;;;;2.55;0.63;;;8.50;99.90;;;;;;5039018;28;20048;-90
2021/12/24 12:42:57;;;;;;;0.30;0.30;;;8.50;99.90;;;;;;5017543;28;20025;-90
2021/12/24 12:45:36;;;;;;;0.38;0.38;;;8.50;99.90;;;;;;5017593;28;20068;-91
2021/12/24 12:48:41;;;;;;;4.63;0.70;;;8.40;99.90;;;;;;5020277;28;20021;-91
2021/12/24 12:51:07;;;;;;;2.67;1.08;;;8.40;99.90;;;;;;5025220;28;20036;-91
2021/12/24 12:53:36;;;;;;;0.63;0.63;;;8.40;99.90;;;;;;5025733;28;20105;-91
2021/12/24 12:56:23;;;;;;;0.52;0.50;;;8.30;99.90;;;;;;5023865;28;20039;-91
2021/12/24 12:59:03;;;;;;;0.20;0.20;;;8.30;99.90;;;;;;5024926;28;20022;-91
2021/12/24 13:01:29;;;;;;;1.55;0.68;;;8.40;99.90;;;;;;5026195;28;20017;-92
2021/12/24 13:03:55;;;;;;;0.43;0.43;;;8.40;99.90;;;;;;5025583;28;20063;-92
2021/12/24 13:06:25;;;;;;;0.60;0.60;;;8.40;99.90;;;;;;5024185;28;20029;-92
2021/12/24 13:08:55;;;;;;;1.08;0.50;;;8.30;99.90;;;;;;5025001;28;20032;-91
2021/12/24 13:11:21;;;;;;;0.65;0.60;;;8.40;99.90;;;;;;5026767;28;20029;-92
2021/12/24 13:13:54;;;;;;;0.73;0.55;;;8.40;99.90;;;;;;5025793;28;20471;-91
2021/12/24 13:16:24;;;;;;;4.30;2.42;;;8.30;99.90;;;;;;5025608;28;20033;-92
2021/12/24 13:18:58;;;;;;;0.30;0.30;;;8.30;99.90;;;;;;5024102;28;20037;-92
2021/12/24 13:24:11;;;;;;;0.20;0.20;;;8.40;99.90;;;;;;5040218;28;20025;-92
2021/12/24 13:26:45;;;;;;;1.08;0.43;;;8.30;99.90;;;;;;5023604;28;20060;-92
2021/12/24 13:29:16;;;;;;;1.77;0.68;;;8.30;99.90;;;;;;5024067;28;20033;-92
2021/12/24 13:31:50;;;;;;;0.35;0.35;;;8.30;99.90;;;;;;5023988;28;20394;-91
2021/12/24 13:34:16;;;;;;;0.20;0.20;;;8.20;99.90;;;;;;5023120;28;20056;-91
2021/12/24 13:36:42;;;;;;;0.10;0.10;;;8.20;99.90;;;;;;5023908;28;20030;-92
2021/12/24 13:39:10;;;;;;;1.98;0.82;;;8.20;99.90;;;;;;5024838;28;20022;-93
2021/12/24 13:41:37;;;;;;;0.10;0.10;;;8.10;99.90;;;;;;5027461;28;20052;-93
2021/12/24 13:44:04;;;;;;;6.30;1.17;;;8.10;99.90;;;;;;5025506;28;20079;-92
2021/12/24 13:46:33;;;;;;;1.45;1.05;;;8.10;99.90;;;;;;5025747;28;20013;-91
2021/12/24 13:56:42;;;;;;;0.55;0.55;;;7.90;99.90;;;;;;5040987;28;20025;-91
2021/12/24 13:59:10;;;;;;;0.20;0.20;;;8.00;99.90;;;;;;5024971;28;20048;-92
2021/12/24 14:01:38;;;;;;;0.20;0.20;;;8.10;99.90;;;;;;5027018;28;20017;-92
2021/12/24 14:04:05;;;;;;;0.47;0.47;;;8.00;99.90;;;;;;5027102;28;20116;-93
2021/12/24 14:06:39;;;;;;;0.25;0.25;;;7.90;99.90;;;;;;5025887;28;20029;-92
2021/12/24 14:09:10;;;;;;;0.22;0.22;;;7.90;99.90;;;;;;5024438;28;20083;-92
2021/12/24 14:11:37;;;;;;;3.85;3.47;;;7.90;99.90;;;;;;5026730;28;20497;-91
2021/12/24 14:14:09;;;;;;;0.28;0.28;;;7.90;99.90;;;;;;5026836;28;20308;-91
2021/12/24 14:19:30;;;;;;;0.20;0.20;;;7.80;99.90;;;;;;5041468;28;20060;-92
2021/12/24 14:22:30;;;;;;;0.45;0.45;;;7.80;99.90;;;;;;5025525;28;20116;-91
2021/12/24 14:24:58;;;;;;;0.30;0.30;;;7.80;99.90;;;;;;5001921;28;20025;-92
2021/12/24 14:27:29;;;;;;;0.85;0.85;;;7.70;99.90;;;;;;5023687;28;20036;-91
2021/12/24 14:29:58;;;;;;;0.38;0.38;;;7.70;99.90;;;;;;5025092;28;20589;-92
2021/12/24 14:32:37;;;;;;;0.85;0.65;;;7.80;99.90;;;;;;5027078;28;20022;-91
2021/12/24 14:35:19;;;;;;;0.20;0.20;;;7.80;99.90;;;;;;5025100;28;20032;-92
2021/12/24 14:38:03;;;;;;;;;;;7.80;99.90;;;;;;5023480;28;20021;-92
2021/12/24 14:40:31;;;;;;;0.20;0.20;;;7.80;99.90;;;;;;5023247;28;19905;-91
2021/12/24 14:42:58;;;;;;;0.30;0.30;;;7.80;99.90;;;;;;5024714;28;20033;-92
2021/12/24 14:45:34;;;;;;;0.30;0.30;;;7.80;99.90;;;;;;5025319;28;20091;-91
2021/12/24 14:48:08;;;;;;;0.30;0.30;;;7.80;99.90;;;;;;5024182;28;20025;-92
2021/12/24 14:50:36;;;;;;;3.20;0.77;;;7.70;99.90;;;;;;5024000;28;20029;-90
2021/12/24 14:53:14;;;;;;;0.20;0.20;;;7.70;99.90;;;;;;5023700;28;20386;-92
2021/12/24 14:55:46;;;;;;;0.50;0.50;;;7.70;99.90;;;;;;5024251;28;20112;-90
2021/12/24 14:58:12;;;;;;;;;;;7.70;99.90;;;;;;5021528;28;20504;-91
2021/12/24 15:00:42;;;;;;;0.38;0.32;;;7.70;99.90;;;;;;5021692;28;19905;-90
2021/12/24 15:03:17;;;;;;;0.10;0.10;;;7.70;99.90;;;;;;5020901;28;20640;-90